sensor_id;sensor_type;location;lat;lon;timestamp;P1;durP1;ratioP1;P2;durP2;ratioP2
54823;SDS011;40724;53.196;5.980;2023-10-13T00:02:00;13.18;;;8.68;;
54823;SDS011;40724;53.196;5.980;2023-10-13T00:04:28;14.48;;;8.45;;
54823;SDS011;40724;53.196;5.980;2023-10-13T00:06:56;12.98;;;9.35;;
54823;SDS011;40724;53.196;5.980;2023-10-13T00:09:23;13.25;;;8.18;;
54823;SDS011;40724;53.196;5.980;2023-10-13T00:11:57;15.27;;;9.02;;
54823;SDS011;40724;53.196;5.980;2023-10-13T00:14:24;13.88;;;8.88;;
54823;SDS011;40724;53.196;5.980;2023-10-13T00:16:58;14.95;;;9.25;;
54823;SDS011;40724;53.196;5.980;2023-10-13T00:19:33;12.57;;;8.45;;
54823;SDS011;40724;53.196;5.980;2023-10-13T00:22:09;13.82;;;8.25;;
54823;SDS011;40724;53.196;5.980;2023-10-13T00:24:39;12.73;;;8.80;;
54823;SDS011;40724;53.196;5.980;2023-10-13T00:27:11;14.88;;;9.15;;
54823;SDS011;40724;53.196;5.980;2023-10-13T00:29:59;14.70;;;9.40;;
54823;SDS011;40724;53.196;5.980;2023-10-13T00:32:44;13.27;;;9.27;;
54823;SDS011;40724;53.196;5.980;2023-10-13T00:35:16;12.13;;;8.50;;
54823;SDS011;40724;53.196;5.980;2023-10-13T00:37:52;15.02;;;10.80;;
54823;SDS011;40724;53.196;5.980;2023-10-13T00:40:22;15.63;;;11.30;;
54823;SDS011;40724;53.196;5.980;2023-10-13T00:42:54;15.90;;;11.10;;
54823;SDS011;40724;53.196;5.980;2023-10-13T00:45:30;16.02;;;11.05;;
54823;SDS011;40724;53.196;5.980;2023-10-13T00:47:57;13.75;;;10.05;;
54823;SDS011;40724;53.196;5.980;2023-10-13T00:50:26;16.05;;;10.65;;
54823;SDS011;40724;53.196;5.980;2023-10-13T00:52:54;13.88;;;11.20;;
54823;SDS011;40724;53.196;5.980;2023-10-13T00:55:21;12.52;;;9.05;;
54823;SDS011;40724;53.196;5.980;2023-10-13T00:57:51;17.10;;;10.88;;
54823;SDS011;40724;53.196;5.980;2023-10-13T01:00:22;14.45;;;8.70;;
54823;SDS011;40724;53.196;5.980;2023-10-13T01:02:53;16.45;;;9.77;;
54823;SDS011;40724;53.196;5.980;2023-10-13T01:05:30;15.02;;;8.60;;
54823;SDS011;40724;53.196;5.980;2023-10-13T01:08:00;16.00;;;9.40;;
54823;SDS011;40724;53.196;5.980;2023-10-13T01:10:27;10.40;;;7.95;;
54823;SDS011;40724;53.196;5.980;2023-10-13T01:12:57;15.50;;;9.10;;
54823;SDS011;40724;53.196;5.980;2023-10-13T01:15:27;11.30;;;8.18;;
54823;SDS011;40724;53.196;5.980;2023-10-13T01:18:10;12.40;;;8.88;;
54823;SDS011;40724;53.196;5.980;2023-10-13T01:20:41;9.15;;;6.95;;
54823;SDS011;40724;53.196;5.980;2023-10-13T01:23:13;9.88;;;8.13;;
54823;SDS011;40724;53.196;5.980;2023-10-13T01:25:49;8.55;;;6.43;;
54823;SDS011;40724;53.196;5.980;2023-10-13T01:28:16;9.18;;;6.70;;
54823;SDS011;40724;53.196;5.980;2023-10-13T01:30:43;9.70;;;6.53;;
54823;SDS011;40724;53.196;5.980;2023-10-13T01:33:16;12.95;;;5.93;;
54823;SDS011;40724;53.196;5.980;2023-10-13T01:35:42;6.72;;;5.15;;
54823;SDS011;40724;53.196;5.980;2023-10-13T01:38:15;9.10;;;5.25;;
54823;SDS011;40724;53.196;5.980;2023-10-13T01:40:41;9.15;;;5.47;;
54823;SDS011;40724;53.196;5.980;2023-10-13T01:43:08;7.03;;;5.30;;
54823;SDS011;40724;53.196;5.980;2023-10-13T01:45:37;6.20;;;4.65;;
54823;SDS011;40724;53.196;5.980;2023-10-13T01:48:11;8.43;;;5.28;;
54823;SDS011;40724;53.196;5.980;2023-10-13T01:50:41;9.95;;;5.30;;
54823;SDS011;40724;53.196;5.980;2023-10-13T01:53:07;7.47;;;4.20;;
54823;SDS011;40724;53.196;5.980;2023-10-13T01:55:40;8.48;;;5.15;;
54823;SDS011;40724;53.196;5.980;2023-10-13T01:58:15;7.50;;;4.80;;
54823;SDS011;40724;53.196;5.980;2023-10-13T02:03:09;6.53;;;3.55;;
54823;SDS011;40724;53.196;5.980;2023-10-13T02:05:42;5.95;;;3.22;;
54823;SDS011;40724;53.196;5.980;2023-10-13T02:08:22;6.63;;;3.90;;
54823;SDS011;40724;53.196;5.980;2023-10-13T02:10:50;7.05;;;3.60;;
54823;SDS011;40724;53.196;5.980;2023-10-13T02:13:16;5.32;;;3.33;;
54823;SDS011;40724;53.196;5.980;2023-10-13T02:15:44;8.95;;;3.75;;
54823;SDS011;40724;53.196;5.980;2023-10-13T02:18:12;9.55;;;4.55;;
54823;SDS011;40724;53.196;5.980;2023-10-13T02:20:38;7.65;;;3.47;;
54823;SDS011;40724;53.196;5.980;2023-10-13T02:23:09;4.53;;;2.85;;
54823;SDS011;40724;53.196;5.980;2023-10-13T02:25:36;8.27;;;3.72;;
54823;SDS011;40724;53.196;5.980;2023-10-13T02:28:08;5.75;;;3.70;;
54823;SDS011;40724;53.196;5.980;2023-10-13T02:30:47;5.28;;;2.83;;
54823;SDS011;40724;53.196;5.980;2023-10-13T02:33:15;6.47;;;3.90;;
54823;SDS011;40724;53.196;5.980;2023-10-13T02:35:47;6.50;;;4.05;;
54823;SDS011;40724;53.196;5.980;2023-10-13T02:40:53;6.63;;;3.63;;
54823;SDS011;40724;53.196;5.980;2023-10-13T02:43:20;4.38;;;2.90;;
54823;SDS011;40724;53.196;5.980;2023-10-13T02:45:54;6.45;;;3.70;;
54823;SDS011;40724;53.196;5.980;2023-10-13T02:48:25;5.43;;;3.15;;
54823;SDS011;40724;53.196;5.980;2023-10-13T02:50:58;7.82;;;4.13;;
54823;SDS011;40724;53.196;5.980;2023-10-13T02:53:30;8.48;;;4.28;;
54823;SDS011;40724;53.196;5.980;2023-10-13T02:55:57;7.07;;;4.30;;
54823;SDS011;40724;53.196;5.980;2023-10-13T02:58:32;6.05;;;4.20;;
54823;SDS011;40724;53.196;5.980;2023-10-13T03:01:05;7.95;;;4.63;;
54823;SDS011;40724;53.196;5.980;2023-10-13T03:03:42;9.55;;;5.22;;
54823;SDS011;40724;53.196;5.980;2023-10-13T03:06:08;5.53;;;4.65;;
54823;SDS011;40724;53.196;5.980;2023-10-13T03:08:37;7.00;;;4.93;;
54823;SDS011;40724;53.196;5.980;2023-10-13T03:11:04;7.03;;;5.10;;
54823;SDS011;40724;53.196;5.980;2023-10-13T03:13:30;10.73;;;5.82;;
54823;SDS011;40724;53.196;5.980;2023-10-13T03:16:00;8.13;;;5.72;;
54823;SDS011;40724;53.196;5.980;2023-10-13T03:18:29;7.97;;;5.63;;
54823;SDS011;40724;53.196;5.980;2023-10-13T03:20:59;9.13;;;5.70;;
54823;SDS011;40724;53.196;5.980;2023-10-13T03:23:27;8.77;;;5.68;;
54823;SDS011;40724;53.196;5.980;2023-10-13T03:25:53;8.15;;;6.00;;
54823;SDS011;40724;53.196;5.980;2023-10-13T03:28:21;9.38;;;6.68;;
54823;SDS011;40724;53.196;5.980;2023-10-13T03:30:51;12.18;;;7.05;;
54823;SDS011;40724;53.196;5.980;2023-10-13T03:33:26;9.52;;;5.95;;
54823;SDS011;40724;53.196;5.980;2023-10-13T03:35:52;12.38;;;6.53;;
54823;SDS011;40724;53.196;5.980;2023-10-13T03:38:30;9.80;;;6.00;;
54823;SDS011;40724;53.196;5.980;2023-10-13T03:41:02;8.52;;;6.43;;
54823;SDS011;40724;53.196;5.980;2023-10-13T03:43:45;9.07;;;6.13;;
54823;SDS011;40724;53.196;5.980;2023-10-13T03:46:16;9.93;;;6.63;;
54823;SDS011;40724;53.196;5.980;2023-10-13T03:48:46;8.10;;;6.07;;
54823;SDS011;40724;53.196;5.980;2023-10-13T03:51:19;8.70;;;6.38;;
54823;SDS011;40724;53.196;5.980;2023-10-13T03:53:46;8.38;;;6.03;;
54823;SDS011;40724;53.196;5.980;2023-10-13T03:56:18;8.48;;;5.10;;
54823;SDS011;40724;53.196;5.980;2023-10-13T03:58:56;11.70;;;6.35;;
54823;SDS011;40724;53.196;5.980;2023-10-13T04:01:25;7.03;;;5.47;;
54823;SDS011;40724;53.196;5.980;2023-10-13T04:04:00;8.43;;;6.43;;
54823;SDS011;40724;53.196;5.980;2023-10-13T04:06:34;7.53;;;5.57;;
54823;SDS011;40724;53.196;5.980;2023-10-13T04:09:17;6.07;;;4.60;;
54823;SDS011;40724;53.196;5.980;2023-10-13T04:11:56;6.78;;;4.70;;
54823;SDS011;40724;53.196;5.980;2023-10-13T04:14:31;6.82;;;4.30;;
54823;SDS011;40724;53.196;5.980;2023-10-13T04:17:17;9.57;;;5.80;;
54823;SDS011;40724;53.196;5.980;2023-10-13T04:19:51;6.88;;;4.97;;
54823;SDS011;40724;53.196;5.980;2023-10-13T04:22:33;8.35;;;4.25;;
54823;SDS011;40724;53.196;5.980;2023-10-13T04:25:12;6.32;;;3.97;;
54823;SDS011;40724;53.196;5.980;2023-10-13T04:27:57;5.50;;;3.85;;
54823;SDS011;40724;53.196;5.980;2023-10-13T04:30:39;5.63;;;3.83;;
54823;SDS011;40724;53.196;5.980;2023-10-13T04:33:23;7.85;;;4.40;;
54823;SDS011;40724;53.196;5.980;2023-10-13T04:36:12;6.38;;;3.75;;
54823;SDS011;40724;53.196;5.980;2023-10-13T04:38:47;6.78;;;3.60;;
54823;SDS011;40724;53.196;5.980;2023-10-13T04:41:35;7.30;;;5.03;;
54823;SDS011;40724;53.196;5.980;2023-10-13T04:44:14;5.30;;;3.90;;
54823;SDS011;40724;53.196;5.980;2023-10-13T04:46:59;4.97;;;3.83;;
54823;SDS011;40724;53.196;5.980;2023-10-13T04:49:29;5.28;;;3.90;;
54823;SDS011;40724;53.196;5.980;2023-10-13T04:52:15;7.20;;;4.25;;
54823;SDS011;40724;53.196;5.980;2023-10-13T04:55:13;7.15;;;4.25;;
54823;SDS011;40724;53.196;5.980;2023-10-13T04:58:12;7.38;;;5.30;;
54823;SDS011;40724;53.196;5.980;2023-10-13T05:01:02;7.97;;;3.60;;
54823;SDS011;40724;53.196;5.980;2023-10-13T05:03:46;7.60;;;4.88;;
54823;SDS011;40724;53.196;5.980;2023-10-13T05:06:46;7.55;;;5.32;;
54823;SDS011;40724;53.196;5.980;2023-10-13T05:09:12;9.27;;;5.85;;
54823;SDS011;40724;53.196;5.980;2023-10-13T05:11:57;8.23;;;5.72;;
54823;SDS011;40724;53.196;5.980;2023-10-13T05:14:42;6.40;;;4.22;;
54823;SDS011;40724;53.196;5.980;2023-10-13T05:17:27;6.85;;;4.70;;
54823;SDS011;40724;53.196;5.980;2023-10-13T05:20:13;8.65;;;5.88;;
54823;SDS011;40724;53.196;5.980;2023-10-13T05:23:17;5.65;;;4.65;;
54823;SDS011;40724;53.196;5.980;2023-10-13T05:26:02;6.88;;;4.97;;
54823;SDS011;40724;53.196;5.980;2023-10-13T05:28:46;9.95;;;5.43;;
54823;SDS011;40724;53.196;5.980;2023-10-13T05:31:31;7.30;;;4.82;;
54823;SDS011;40724;53.196;5.980;2023-10-13T05:34:15;6.63;;;5.10;;
54823;SDS011;40724;53.196;5.980;2023-10-13T05:36:59;7.30;;;5.68;;
54823;SDS011;40724;53.196;5.980;2023-10-13T05:40:04;6.90;;;4.85;;
54823;SDS011;40724;53.196;5.980;2023-10-13T05:42:48;6.93;;;4.20;;
54823;SDS011;40724;53.196;5.980;2023-10-13T05:45:34;6.35;;;4.75;;
54823;SDS011;40724;53.196;5.980;2023-10-13T05:48:26;9.95;;;4.45;;
54823;SDS011;40724;53.196;5.980;2023-10-13T05:51:11;6.90;;;4.28;;
54823;SDS011;40724;53.196;5.980;2023-10-13T05:53:55;5.32;;;4.18;;
54823;SDS011;40724;53.196;5.980;2023-10-13T05:56:46;5.15;;;3.78;;
54823;SDS011;40724;53.196;5.980;2023-10-13T05:59:32;4.75;;;3.75;;
54823;SDS011;40724;53.196;5.980;2023-10-13T06:02:18;5.47;;;3.85;;
54823;SDS011;40724;53.196;5.980;2023-10-13T06:07:48;4.85;;;2.97;;
54823;SDS011;40724;53.196;5.980;2023-10-13T06:10:33;5.20;;;3.60;;
54823;SDS011;40724;53.196;5.980;2023-10-13T06:13:18;4.00;;;3.38;;
54823;SDS011;40724;53.196;5.980;2023-10-13T06:16:06;4.60;;;3.10;;
54823;SDS011;40724;53.196;5.980;2023-10-13T06:18:54;5.05;;;3.40;;
54823;SDS011;40724;53.196;5.980;2023-10-13T06:21:38;5.32;;;3.65;;
54823;SDS011;40724;53.196;5.980;2023-10-13T06:24:23;9.18;;;3.90;;
54823;SDS011;40724;53.196;5.980;2023-10-13T06:27:07;5.20;;;3.45;;
54823;SDS011;40724;53.196;5.980;2023-10-13T06:29:52;4.53;;;3.25;;
54823;SDS011;40724;53.196;5.980;2023-10-13T06:32:21;5.22;;;3.13;;
54823;SDS011;40724;53.196;5.980;2023-10-13T06:34:57;4.78;;;3.05;;
54823;SDS011;40724;53.196;5.980;2023-10-13T06:37:23;4.32;;;3.10;;
54823;SDS011;40724;53.196;5.980;2023-10-13T06:39:59;3.80;;;2.65;;
54823;SDS011;40724;53.196;5.980;2023-10-13T06:42:39;5.40;;;3.60;;
54823;SDS011;40724;53.196;5.980;2023-10-13T06:45:08;4.65;;;2.60;;
54823;SDS011;40724;53.196;5.980;2023-10-13T06:47:35;4.10;;;2.92;;
54823;SDS011;40724;53.196;5.980;2023-10-13T06:50:08;4.97;;;2.28;;
54823;SDS011;40724;53.196;5.980;2023-10-13T06:52:49;6.90;;;2.75;;
54823;SDS011;40724;53.196;5.980;2023-10-13T06:55:16;4.47;;;2.80;;
54823;SDS011;40724;53.196;5.980;2023-10-13T06:57:43;7.85;;;3.70;;
54823;SDS011;40724;53.196;5.980;2023-10-13T07:00:10;6.30;;;3.13;;
54823;SDS011;40724;53.196;5.980;2023-10-13T07:02:47;4.80;;;2.50;;
54823;SDS011;40724;53.196;5.980;2023-10-13T07:05:16;5.55;;;2.78;;
54823;SDS011;40724;53.196;5.980;2023-10-13T07:07:42;5.43;;;3.70;;
54823;SDS011;40724;53.196;5.980;2023-10-13T07:10:09;6.32;;;3.20;;
54823;SDS011;40724;53.196;5.980;2023-10-13T07:12:37;8.02;;;3.80;;
54823;SDS011;40724;53.196;5.980;2023-10-13T07:15:13;5.63;;;3.70;;
54823;SDS011;40724;53.196;5.980;2023-10-13T07:17:42;6.15;;;3.50;;
54823;SDS011;40724;53.196;5.980;2023-10-13T07:20:10;5.25;;;3.63;;
54823;SDS011;40724;53.196;5.980;2023-10-13T07:22:54;6.22;;;3.70;;
54823;SDS011;40724;53.196;5.980;2023-10-13T07:25:23;7.22;;;3.83;;
54823;SDS011;40724;53.196;5.980;2023-10-13T07:27:51;6.00;;;3.63;;
54823;SDS011;40724;53.196;5.980;2023-10-13T07:30:17;7.45;;;3.80;;
54823;SDS011;40724;53.196;5.980;2023-10-13T07:32:51;7.50;;;3.42;;
54823;SDS011;40724;53.196;5.980;2023-10-13T07:35:18;10.82;;;3.92;;
54823;SDS011;40724;53.196;5.980;2023-10-13T07:37:50;8.80;;;4.05;;
54823;SDS011;40724;53.196;5.980;2023-10-13T07:40:19;6.82;;;3.20;;
54823;SDS011;40724;53.196;5.980;2023-10-13T07:45:26;14.27;;;5.00;;
54823;SDS011;40724;53.196;5.980;2023-10-13T07:48:01;9.40;;;3.97;;
54823;SDS011;40724;53.196;5.980;2023-10-13T07:50:33;9.25;;;4.10;;
54823;SDS011;40724;53.196;5.980;2023-10-13T07:53:00;10.43;;;4.97;;
54823;SDS011;40724;53.196;5.980;2023-10-13T07:55:48;11.32;;;5.20;;
54823;SDS011;40724;53.196;5.980;2023-10-13T07:58:20;16.42;;;4.88;;
54823;SDS011;40724;53.196;5.980;2023-10-13T08:00:50;11.32;;;4.72;;
54823;SDS011;40724;53.196;5.980;2023-10-13T08:03:36;9.90;;;4.28;;
54823;SDS011;40724;53.196;5.980;2023-10-13T08:06:25;8.02;;;4.63;;
54823;SDS011;40724;53.196;5.980;2023-10-13T08:08:53;9.60;;;4.68;;
54823;SDS011;40724;53.196;5.980;2023-10-13T08:11:20;12.65;;;5.35;;
54823;SDS011;40724;53.196;5.980;2023-10-13T08:13:58;8.40;;;4.95;;
54823;SDS011;40724;53.196;5.980;2023-10-13T08:16:31;10.95;;;4.35;;
54823;SDS011;40724;53.196;5.980;2023-10-13T08:19:16;14.45;;;5.28;;
54823;SDS011;40724;53.196;5.980;2023-10-13T08:21:43;11.90;;;4.65;;
54823;SDS011;40724;53.196;5.980;2023-10-13T08:24:24;10.25;;;5.25;;
54823;SDS011;40724;53.196;5.980;2023-10-13T08:27:05;11.95;;;4.72;;
54823;SDS011;40724;53.196;5.980;2023-10-13T08:29:44;11.25;;;5.28;;
54823;SDS011;40724;53.196;5.980;2023-10-13T08:32:20;10.05;;;4.65;;
54823;SDS011;40724;53.196;5.980;2023-10-13T08:34:53;11.93;;;5.00;;
54823;SDS011;40724;53.196;5.980;2023-10-13T08:37:20;10.90;;;5.03;;
54823;SDS011;40724;53.196;5.980;2023-10-13T08:39:50;11.23;;;4.90;;
54823;SDS011;40724;53.196;5.980;2023-10-13T08:42:30;11.93;;;4.82;;
54823;SDS011;40724;53.196;5.980;2023-10-13T08:45:09;10.35;;;4.88;;
54823;SDS011;40724;53.196;5.980;2023-10-13T08:47:48;8.38;;;4.43;;
54823;SDS011;40724;53.196;5.980;2023-10-13T08:53:30;7.93;;;5.18;;
54823;SDS011;40724;53.196;5.980;2023-10-13T08:58:32;10.02;;;4.20;;
54823;SDS011;40724;53.196;5.980;2023-10-13T09:01:24;9.80;;;5.45;;
54823;SDS011;40724;53.196;5.980;2023-10-13T09:04:13;8.82;;;5.00;;
54823;SDS011;40724;53.196;5.980;2023-10-13T09:06:47;12.27;;;4.65;;
54823;SDS011;40724;53.196;5.980;2023-10-13T09:09:25;7.47;;;5.07;;
54823;SDS011;40724;53.196;5.980;2023-10-13T09:11:54;12.38;;;5.55;;
54823;SDS011;40724;53.196;5.980;2023-10-13T09:14:36;7.88;;;4.70;;
54823;SDS011;40724;53.196;5.980;2023-10-13T09:17:04;8.77;;;4.60;;
54823;SDS011;40724;53.196;5.980;2023-10-13T09:19:52;7.93;;;5.05;;
54823;SDS011;40724;53.196;5.980;2023-10-13T09:22:21;11.48;;;4.75;;
54823;SDS011;40724;53.196;5.980;2023-10-13T09:24:58;11.02;;;5.40;;
54823;SDS011;40724;53.196;5.980;2023-10-13T09:27:27;8.75;;;5.68;;
54823;SDS011;40724;53.196;5.980;2023-10-13T09:30:02;11.27;;;5.55;;
54823;SDS011;40724;53.196;5.980;2023-10-13T09:32:34;11.63;;;5.75;;
54823;SDS011;40724;53.196;5.980;2023-10-13T09:35:11;7.28;;;4.63;;
54823;SDS011;40724;53.196;5.980;2023-10-13T09:37:44;10.02;;;5.00;;
54823;SDS011;40724;53.196;5.980;2023-10-13T09:40:14;7.38;;;4.53;;
54823;SDS011;40724;53.196;5.980;2023-10-13T09:42:53;9.55;;;5.70;;
54823;SDS011;40724;53.196;5.980;2023-10-13T09:45:31;9.23;;;5.28;;
54823;SDS011;40724;53.196;5.980;2023-10-13T09:48:16;12.75;;;5.53;;
54823;SDS011;40724;53.196;5.980;2023-10-13T09:50:51;11.07;;;5.40;;
54823;SDS011;40724;53.196;5.980;2023-10-13T09:53:21;11.40;;;6.22;;
54823;SDS011;40724;53.196;5.980;2023-10-13T09:58:48;7.97;;;4.97;;
54823;SDS011;40724;53.196;5.980;2023-10-13T10:01:24;8.95;;;5.30;;
54823;SDS011;40724;53.196;5.980;2023-10-13T10:04:08;14.50;;;5.43;;
54823;SDS011;40724;53.196;5.980;2023-10-13T10:06:53;11.98;;;5.03;;
54823;SDS011;40724;53.196;5.980;2023-10-13T10:09:28;8.57;;;5.68;;
54823;SDS011;40724;53.196;5.980;2023-10-13T10:12:12;10.55;;;5.75;;
54823;SDS011;40724;53.196;5.980;2023-10-13T10:17:45;8.85;;;5.03;;
54823;SDS011;40724;53.196;5.980;2023-10-13T10:20:12;7.97;;;5.00;;
54823;SDS011;40724;53.196;5.980;2023-10-13T10:23:01;9.13;;;5.00;;
54823;SDS011;40724;53.196;5.980;2023-10-13T10:25:30;10.85;;;5.40;;
54823;SDS011;40724;53.196;5.980;2023-10-13T10:28:04;11.48;;;5.68;;
54823;SDS011;40724;53.196;5.980;2023-10-13T10:30:35;11.82;;;5.28;;
54823;SDS011;40724;53.196;5.980;2023-10-13T10:33:04;11.77;;;4.63;;
54823;SDS011;40724;53.196;5.980;2023-10-13T10:35:58;11.18;;;5.00;;
54823;SDS011;40724;53.196;5.980;2023-10-13T10:38:25;10.68;;;5.72;;
54823;SDS011;40724;53.196;5.980;2023-10-13T10:43:25;9.60;;;5.38;;
54823;SDS011;40724;53.196;5.980;2023-10-13T10:45:52;9.82;;;5.30;;
54823;SDS011;40724;53.196;5.980;2023-10-13T10:48:24;11.80;;;5.63;;
54823;SDS011;40724;53.196;5.980;2023-10-13T10:50:59;9.90;;;4.75;;
54823;SDS011;40724;53.196;5.980;2023-10-13T10:53:33;10.68;;;5.07;;
54823;SDS011;40724;53.196;5.980;2023-10-13T10:56:08;10.52;;;4.63;;
54823;SDS011;40724;53.196;5.980;2023-10-13T10:58:48;9.13;;;5.28;;
54823;SDS011;40724;53.196;5.980;2023-10-13T11:01:23;12.50;;;5.85;;
54823;SDS011;40724;53.196;5.980;2023-10-13T11:03:53;10.15;;;5.28;;
54823;SDS011;40724;53.196;5.980;2023-10-13T11:06:27;10.68;;;6.07;;
54823;SDS011;40724;53.196;5.980;2023-10-13T11:09:05;14.05;;;5.78;;
54823;SDS011;40724;53.196;5.980;2023-10-13T11:11:44;11.65;;;5.57;;
54823;SDS011;40724;53.196;5.980;2023-10-13T11:14:21;16.13;;;6.35;;
54823;SDS011;40724;53.196;5.980;2023-10-13T11:16:56;15.77;;;6.32;;
54823;SDS011;40724;53.196;5.980;2023-10-13T11:22:12;11.32;;;5.55;;
54823;SDS011;40724;53.196;5.980;2023-10-13T11:24:57;7.47;;;5.32;;
54823;SDS011;40724;53.196;5.980;2023-10-13T11:27:36;10.50;;;5.37;;
54823;SDS011;40724;53.196;5.980;2023-10-13T11:30:18;10.82;;;6.50;;
54823;SDS011;40724;53.196;5.980;2023-10-13T11:35:26;11.52;;;5.00;;
54823;SDS011;40724;53.196;5.980;2023-10-13T11:38:17;10.05;;;5.20;;
54823;SDS011;40724;53.196;5.980;2023-10-13T11:41:01;10.77;;;5.13;;
54823;SDS011;40724;53.196;5.980;2023-10-13T11:46:14;10.80;;;5.60;;
54823;SDS011;40724;53.196;5.980;2023-10-13T11:48:45;11.25;;;5.88;;
54823;SDS011;40724;53.196;5.980;2023-10-13T11:51:22;9.35;;;5.15;;
54823;SDS011;40724;53.196;5.980;2023-10-13T11:53:51;17.42;;;6.10;;
54823;SDS011;40724;53.196;5.980;2023-10-13T11:56:17;10.63;;;5.35;;
54823;SDS011;40724;53.196;5.980;2023-10-13T11:58:47;10.93;;;4.72;;
54823;SDS011;40724;53.196;5.980;2023-10-13T12:01:13;10.38;;;5.28;;
54823;SDS011;40724;53.196;5.980;2023-10-13T12:06:24;9.68;;;5.85;;
54823;SDS011;40724;53.196;5.980;2023-10-13T12:09:00;9.30;;;5.45;;
54823;SDS011;40724;53.196;5.980;2023-10-13T12:11:41;11.48;;;5.47;;
54823;SDS011;40724;53.196;5.980;2023-10-13T12:14:10;8.80;;;6.22;;
54823;SDS011;40724;53.196;5.980;2023-10-13T12:16:42;11.07;;;5.88;;
54823;SDS011;40724;53.196;5.980;2023-10-13T12:19:13;11.93;;;6.87;;
54823;SDS011;40724;53.196;5.980;2023-10-13T12:21:42;10.27;;;6.32;;
54823;SDS011;40724;53.196;5.980;2023-10-13T12:24:09;13.35;;;6.50;;
54823;SDS011;40724;53.196;5.980;2023-10-13T12:26:46;10.15;;;5.80;;
54823;SDS011;40724;53.196;5.980;2023-10-13T12:29:12;13.27;;;6.43;;
54823;SDS011;40724;53.196;5.980;2023-10-13T12:31:47;13.48;;;7.28;;
54823;SDS011;40724;53.196;5.980;2023-10-13T12:34:30;13.60;;;6.97;;
54823;SDS011;40724;53.196;5.980;2023-10-13T12:37:16;17.08;;;7.40;;
54823;SDS011;40724;53.196;5.980;2023-10-13T12:40:00;10.40;;;6.50;;
54823;SDS011;40724;53.196;5.980;2023-10-13T12:42:45;16.30;;;7.35;;
54823;SDS011;40724;53.196;5.980;2023-10-13T12:45:29;13.40;;;6.00;;
54823;SDS011;40724;53.196;5.980;2023-10-13T12:48:13;17.02;;;7.45;;
54823;SDS011;40724;53.196;5.980;2023-10-13T12:51:00;12.98;;;5.90;;
54823;SDS011;40724;53.196;5.980;2023-10-13T12:53:48;17.00;;;7.97;;
54823;SDS011;40724;53.196;5.980;2023-10-13T12:56:18;12.48;;;6.57;;
54823;SDS011;40724;53.196;5.980;2023-10-13T12:59:07;14.45;;;6.65;;
54823;SDS011;40724;53.196;5.980;2023-10-13T13:01:34;12.43;;;6.63;;
54823;SDS011;40724;53.196;5.980;2023-10-13T13:04:00;10.52;;;6.82;;
54823;SDS011;40724;53.196;5.980;2023-10-13T13:06:28;11.75;;;6.43;;
54823;SDS011;40724;53.196;5.980;2023-10-13T13:08:59;16.45;;;7.22;;
54823;SDS011;40724;53.196;5.980;2023-10-13T13:11:25;14.15;;;7.28;;
54823;SDS011;40724;53.196;5.980;2023-10-13T13:13:54;12.35;;;7.32;;
54823;SDS011;40724;53.196;5.980;2023-10-13T13:16:20;11.45;;;7.47;;
54823;SDS011;40724;53.196;5.980;2023-10-13T13:18:52;10.65;;;7.25;;
54823;SDS011;40724;53.196;5.980;2023-10-13T13:21:20;11.95;;;6.85;;
54823;SDS011;40724;53.196;5.980;2023-10-13T13:23:51;11.35;;;7.07;;
54823;SDS011;40724;53.196;5.980;2023-10-13T13:26:20;12.93;;;6.67;;
54823;SDS011;40724;53.196;5.980;2023-10-13T13:28:47;12.63;;;7.18;;
54823;SDS011;40724;53.196;5.980;2023-10-13T13:31:17;17.05;;;7.90;;
54823;SDS011;40724;53.196;5.980;2023-10-13T13:33:43;16.60;;;7.35;;
54823;SDS011;40724;53.196;5.980;2023-10-13T13:36:09;14.30;;;7.10;;
54823;SDS011;40724;53.196;5.980;2023-10-13T13:38:41;16.95;;;7.45;;
54823;SDS011;40724;53.196;5.980;2023-10-13T13:41:13;12.52;;;7.80;;
54823;SDS011;40724;53.196;5.980;2023-10-13T13:43:48;14.88;;;8.00;;
54823;SDS011;40724;53.196;5.980;2023-10-13T13:46:21;15.35;;;7.28;;
54823;SDS011;40724;53.196;5.980;2023-10-13T13:48:53;15.05;;;7.07;;
54823;SDS011;40724;53.196;5.980;2023-10-13T13:51:28;15.13;;;7.45;;
54823;SDS011;40724;53.196;5.980;2023-10-13T13:53:56;16.67;;;7.75;;
54823;SDS011;40724;53.196;5.980;2023-10-13T13:56:22;12.05;;;6.60;;
54823;SDS011;40724;53.196;5.980;2023-10-13T13:58:53;17.65;;;7.68;;
54823;SDS011;40724;53.196;5.980;2023-10-13T14:01:24;18.08;;;8.75;;
54823;SDS011;40724;53.196;5.980;2023-10-13T14:03:54;13.38;;;6.68;;
54823;SDS011;40724;53.196;5.980;2023-10-13T14:06:28;15.10;;;7.47;;
54823;SDS011;40724;53.196;5.980;2023-10-13T14:08:57;10.10;;;7.18;;
54823;SDS011;40724;53.196;5.980;2023-10-13T14:11:40;13.32;;;7.95;;
54823;SDS011;40724;53.196;5.980;2023-10-13T14:14:25;16.77;;;7.10;;
54823;SDS011;40724;53.196;5.980;2023-10-13T14:16:51;11.10;;;6.88;;
54823;SDS011;40724;53.196;5.980;2023-10-13T14:19:18;10.43;;;6.80;;
54823;SDS011;40724;53.196;5.980;2023-10-13T14:21:57;14.57;;;7.88;;
54823;SDS011;40724;53.196;5.980;2023-10-13T14:24:23;19.17;;;8.13;;
54823;SDS011;40724;53.196;5.980;2023-10-13T14:26:53;16.08;;;8.40;;
54823;SDS011;40724;53.196;5.980;2023-10-13T14:29:20;16.15;;;8.60;;
54823;SDS011;40724;53.196;5.980;2023-10-13T14:31:51;16.35;;;7.60;;
54823;SDS011;40724;53.196;5.980;2023-10-13T14:34:17;17.48;;;7.82;;
54823;SDS011;40724;53.196;5.980;2023-10-13T14:36:47;11.88;;;6.60;;
54823;SDS011;40724;53.196;5.980;2023-10-13T14:39:13;15.48;;;7.07;;
54823;SDS011;40724;53.196;5.980;2023-10-13T14:41:39;14.80;;;7.97;;
54823;SDS011;40724;53.196;5.980;2023-10-13T14:44:06;16.98;;;8.02;;
54823;SDS011;40724;53.196;5.980;2023-10-13T14:46:32;26.60;;;8.13;;
54823;SDS011;40724;53.196;5.980;2023-10-13T14:49:03;15.35;;;8.10;;
54823;SDS011;40724;53.196;5.980;2023-10-13T14:51:29;14.60;;;7.30;;
54823;SDS011;40724;53.196;5.980;2023-10-13T14:53:56;19.25;;;8.60;;
54823;SDS011;40724;53.196;5.980;2023-10-13T14:56:25;15.55;;;6.82;;
54823;SDS011;40724;53.196;5.980;2023-10-13T14:58:52;21.20;;;9.10;;
54823;SDS011;40724;53.196;5.980;2023-10-13T15:01:19;13.30;;;7.13;;
54823;SDS011;40724;53.196;5.980;2023-10-13T15:03:47;14.02;;;6.78;;
54823;SDS011;40724;53.196;5.980;2023-10-13T15:06:17;18.45;;;9.60;;
54823;SDS011;40724;53.196;5.980;2023-10-13T15:08:45;23.33;;;9.23;;
54823;SDS011;40724;53.196;5.980;2023-10-13T15:11:14;16.17;;;7.82;;
54823;SDS011;40724;53.196;5.980;2023-10-13T15:13:43;16.23;;;9.30;;
54823;SDS011;40724;53.196;5.980;2023-10-13T15:16:15;19.10;;;8.63;;
54823;SDS011;40724;53.196;5.980;2023-10-13T15:18:49;21.33;;;9.73;;
54823;SDS011;40724;53.196;5.980;2023-10-13T15:21:24;16.85;;;8.10;;
54823;SDS011;40724;53.196;5.980;2023-10-13T15:23:59;13.63;;;7.45;;
54823;SDS011;40724;53.196;5.980;2023-10-13T15:26:29;22.73;;;8.15;;
54823;SDS011;40724;53.196;5.980;2023-10-13T15:28:57;17.50;;;7.38;;
54823;SDS011;40724;53.196;5.980;2023-10-13T15:31:25;13.77;;;7.75;;
54823;SDS011;40724;53.196;5.980;2023-10-13T15:34:02;14.10;;;7.82;;
54823;SDS011;40724;53.196;5.980;2023-10-13T15:36:32;19.38;;;8.27;;
54823;SDS011;40724;53.196;5.980;2023-10-13T15:38:59;14.23;;;8.27;;
54823;SDS011;40724;53.196;5.980;2023-10-13T15:41:26;17.85;;;8.32;;
54823;SDS011;40724;53.196;5.980;2023-10-13T15:43:52;16.88;;;8.82;;
54823;SDS011;40724;53.196;5.980;2023-10-13T15:46:20;20.13;;;8.35;;
54823;SDS011;40724;53.196;5.980;2023-10-13T15:48:50;21.42;;;8.23;;
54823;SDS011;40724;53.196;5.980;2023-10-13T15:51:18;20.45;;;8.35;;
54823;SDS011;40724;53.196;5.980;2023-10-13T15:53:44;17.63;;;8.25;;
54823;SDS011;40724;53.196;5.980;2023-10-13T15:56:13;20.75;;;8.93;;
54823;SDS011;40724;53.196;5.980;2023-10-13T15:58:43;26.05;;;9.63;;